Congress Lake, Ohio
Current Conditions -  °F | °C
As of 8:51 AM on Wednesday 28 Jan 2015 (Local Time) from KCAK Reporting Station
Light Fog Light Fog  
Wind Chill: -3°   Ceiling: 100
Heat Index:   Visibility: 0.75mi
Dew Point:   Wind: 6mph
Humidity: 87%   Direction: 260°W
Pressure: 30.33"   Gusts: NA
Location:  40.9665°N, 81.3038°W
Report Text: KCAK 281351Z 26005KT 3/4SM R23/5000VP6000FT BR BCFG BKN001 M14/M16 A3033 RMK AO2 SLP295 VIS 1/2V1 T11391156 $
Loading
Personal Weather Stations






























Interactive Weather Map New forecast layout! Learn more

10-Day Weather Forecast

Advertisements
Track Severe Weather on mobile